sensor_id;sensor_type;location;lat;lon;timestamp;temperature;humidity
18876;DHT22;9570;50.854;13.778;2023-06-24T00:01:20;16.80;99.90
18876;DHT22;9570;50.854;13.778;2023-06-24T00:03:45;16.70;99.90
18876;DHT22;9570;50.854;13.778;2023-06-24T00:06:12;16.70;99.90
18876;DHT22;9570;50.854;13.778;2023-06-24T00:08:44;16.80;99.90
18876;DHT22;9570;50.854;13.778;2023-06-24T00:11:10;16.80;99.90
18876;DHT22;9570;50.854;13.778;2023-06-24T00:13:36;16.80;99.90
18876;DHT22;9570;50.854;13.778;2023-06-24T00:16:02;16.60;99.90
18876;DHT22;9570;50.854;13.778;2023-06-24T00:18:28;16.60;99.90
18876;DHT22;9570;50.854;13.778;2023-06-24T00:20:55;16.60;99.90
18876;DHT22;9570;50.854;13.778;2023-06-24T00:23:22;16.60;99.90
18876;DHT22;9570;50.854;13.778;2023-06-24T00:25:52;16.60;99.90
18876;DHT22;9570;50.854;13.778;2023-06-24T00:28:17;16.60;99.90
18876;DHT22;9570;50.854;13.778;2023-06-24T00:30:43;16.70;99.90
18876;DHT22;9570;50.854;13.778;2023-06-24T00:33:08;16.70;99.90
18876;DHT22;9570;50.854;13.778;2023-06-24T00:35:36;16.70;99.90
18876;DHT22;9570;50.854;13.778;2023-06-24T00:38:03;16.70;99.90
18876;DHT22;9570;50.854;13.778;2023-06-24T00:40:28;16.70;99.90
18876;DHT22;9570;50.854;13.778;2023-06-24T00:42:55;16.80;99.90
18876;DHT22;9570;50.854;13.778;2023-06-24T00:45:21;16.80;99.90
18876;DHT22;9570;50.854;13.778;2023-06-24T00:47:47;16.80;99.90
18876;DHT22;9570;50.854;13.778;2023-06-24T00:50:12;16.80;99.90
18876;DHT22;9570;50.854;13.778;2023-06-24T00:52:38;16.80;99.90
18876;DHT22;9570;50.854;13.778;2023-06-24T00:55:11;16.80;99.90
18876;DHT22;9570;50.854;13.778;2023-06-24T00:57:42;16.90;99.90
18876;DHT22;9570;50.854;13.778;2023-06-24T01:00:08;16.80;99.90
18876;DHT22;9570;50.854;13.778;2023-06-24T01:02:37;16.70;99.90
18876;DHT22;9570;50.854;13.778;2023-06-24T01:05:03;16.70;99.90
18876;DHT22;9570;50.854;13.778;2023-06-24T01:07:34;16.70;99.90
18876;DHT22;9570;50.854;13.778;2023-06-24T01:10:01;16.70;99.90
18876;DHT22;9570;50.854;13.778;2023-06-24T01:12:27;16.70;99.90
18876;DHT22;9570;50.854;13.778;2023-06-24T01:14:52;16.60;99.90
18876;DHT22;9570;50.854;13.778;2023-06-24T01:17:33;16.60;99.90
18876;DHT22;9570;50.854;13.778;2023-06-24T01:25:59;16.70;99.90
18876;DHT22;9570;50.854;13.778;2023-06-24T01:28:58;16.70;99.90
18876;DHT22;9570;50.854;13.778;2023-06-24T01:32:08;16.70;99.90
18876;DHT22;9570;50.854;13.778;2023-06-24T01:34:48;16.70;99.90
18876;DHT22;9570;50.854;13.778;2023-06-24T01:40:11;16.90;99.90
18876;DHT22;9570;50.854;13.778;2023-06-24T01:42:39;16.90;99.90
18876;DHT22;9570;50.854;13.778;2023-06-24T01:45:07;16.90;99.90
18876;DHT22;9570;50.854;13.778;2023-06-24T01:47:35;17.00;99.90
18876;DHT22;9570;50.854;13.778;2023-06-24T01:50:03;16.80;99.90
18876;DHT22;9570;50.854;13.778;2023-06-24T01:52:29;16.80;99.90
18876;DHT22;9570;50.854;13.778;2023-06-24T01:54:56;16.90;99.90
18876;DHT22;9570;50.854;13.778;2023-06-24T01:57:24;16.90;99.90
18876;DHT22;9570;50.854;13.778;2023-06-24T01:59:53;17.00;99.90
18876;DHT22;9570;50.854;13.778;2023-06-24T02:02:20;17.10;99.90
18876;DHT22;9570;50.854;13.778;2023-06-24T02:04:48;17.00;99.90
18876;DHT22;9570;50.854;13.778;2023-06-24T02:07:15;17.00;99.90
18876;DHT22;9570;50.854;13.778;2023-06-24T02:09:43;17.00;99.90
18876;DHT22;9570;50.854;13.778;2023-06-24T02:12:09;17.00;99.90
18876;DHT22;9570;50.854;13.778;2023-06-24T02:14:36;17.00;99.90
18876;DHT22;9570;50.854;13.778;2023-06-24T02:17:05;17.00;99.90
18876;DHT22;9570;50.854;13.778;2023-06-24T02:19:31;17.00;99.90
18876;DHT22;9570;50.854;13.778;2023-06-24T02:21:58;17.00;99.90
18876;DHT22;9570;50.854;13.778;2023-06-24T02:24:26;16.90;99.90
18876;DHT22;9570;50.854;13.778;2023-06-24T02:26:52;17.00;99.90
18876;DHT22;9570;50.854;13.778;2023-06-24T02:29:18;17.00;99.90
18876;DHT22;9570;50.854;13.778;2023-06-24T02:31:45;17.10;99.90
18876;DHT22;9570;50.854;13.778;2023-06-24T02:34:10;17.10;99.90
18876;DHT22;9570;50.854;13.778;2023-06-24T02:36:36;17.00;99.90
18876;DHT22;9570;50.854;13.778;2023-06-24T02:39:01;16.80;99.90
18876;DHT22;9570;50.854;13.778;2023-06-24T02:41:27;16.90;99.90
18876;DHT22;9570;50.854;13.778;2023-06-24T02:43:53;16.90;99.90
18876;DHT22;9570;50.854;13.778;2023-06-24T02:46:19;17.00;99.90
18876;DHT22;9570;50.854;13.778;2023-06-24T02:48:47;16.90;99.90
18876;DHT22;9570;50.854;13.778;2023-06-24T02:51:13;17.00;99.90
18876;DHT22;9570;50.854;13.778;2023-06-24T02:53:39;17.10;99.90
18876;DHT22;9570;50.854;13.778;2023-06-24T02:56:05;17.10;99.90
18876;DHT22;9570;50.854;13.778;2023-06-24T02:58:32;17.20;99.90
18876;DHT22;9570;50.854;13.778;2023-06-24T03:01:01;17.10;99.90
18876;DHT22;9570;50.854;13.778;2023-06-24T03:03:28;17.00;99.90
18876;DHT22;9570;50.854;13.778;2023-06-24T03:05:55;17.10;99.90
18876;DHT22;9570;50.854;13.778;2023-06-24T03:08:22;17.10;99.90
18876;DHT22;9570;50.854;13.778;2023-06-24T03:10:50;17.00;99.90
18876;DHT22;9570;50.854;13.778;2023-06-24T03:13:15;17.00;99.90
18876;DHT22;9570;50.854;13.778;2023-06-24T03:15:41;17.10;99.90
18876;DHT22;9570;50.854;13.778;2023-06-24T03:18:06;17.20;99.90
18876;DHT22;9570;50.854;13.778;2023-06-24T03:20:32;17.10;99.90
18876;DHT22;9570;50.854;13.778;2023-06-24T03:23:07;17.00;99.90
18876;DHT22;9570;50.854;13.778;2023-06-24T03:25:33;17.00;99.90
18876;DHT22;9570;50.854;13.778;2023-06-24T03:27:59;17.10;99.90
18876;DHT22;9570;50.854;13.778;2023-06-24T03:30:26;17.10;99.90
18876;DHT22;9570;50.854;13.778;2023-06-24T03:32:52;17.20;99.90
18876;DHT22;9570;50.854;13.778;2023-06-24T03:35:17;17.20;99.90
18876;DHT22;9570;50.854;13.778;2023-06-24T03:37:42;17.10;99.90
18876;DHT22;9570;50.854;13.778;2023-06-24T03:40:08;17.20;99.90
18876;DHT22;9570;50.854;13.778;2023-06-24T03:42:34;17.20;99.90
18876;DHT22;9570;50.854;13.778;2023-06-24T03:44:59;17.20;99.90
18876;DHT22;9570;50.854;13.778;2023-06-24T03:47:25;17.30;99.90
18876;DHT22;9570;50.854;13.778;2023-06-24T03:49:50;17.30;99.90
18876;DHT22;9570;50.854;13.778;2023-06-24T03:52:17;17.30;99.90
18876;DHT22;9570;50.854;13.778;2023-06-24T03:54:42;17.20;99.90
18876;DHT22;9570;50.854;13.778;2023-06-24T03:57:08;17.30;99.90
18876;DHT22;9570;50.854;13.778;2023-06-24T03:59:34;17.40;99.90
18876;DHT22;9570;50.854;13.778;2023-06-24T04:02:00;17.30;99.90
18876;DHT22;9570;50.854;13.778;2023-06-24T04:04:26;17.40;99.90
18876;DHT22;9570;50.854;13.778;2023-06-24T04:06:51;17.50;99.90
18876;DHT22;9570;50.854;13.778;2023-06-24T04:09:17;17.50;99.90
18876;DHT22;9570;50.854;13.778;2023-06-24T04:11:42;17.50;99.90
18876;DHT22;9570;50.854;13.778;2023-06-24T04:14:08;17.50;99.90
18876;DHT22;9570;50.854;13.778;2023-06-24T04:16:35;17.50;99.90
18876;DHT22;9570;50.854;13.778;2023-06-24T04:19:00;17.60;99.90
18876;DHT22;9570;50.854;13.778;2023-06-24T04:21:26;17.60;99.90
18876;DHT22;9570;50.854;13.778;2023-06-24T04:23:52;17.60;99.90
18876;DHT22;9570;50.854;13.778;2023-06-24T04:26:17;17.60;99.90
18876;DHT22;9570;50.854;13.778;2023-06-24T04:28:43;17.40;99.90
18876;DHT22;9570;50.854;13.778;2023-06-24T04:31:08;17.30;99.90
18876;DHT22;9570;50.854;13.778;2023-06-24T04:33:34;17.30;99.90
18876;DHT22;9570;50.854;13.778;2023-06-24T04:35:59;17.20;99.90
18876;DHT22;9570;50.854;13.778;2023-06-24T04:38:25;17.20;99.90
18876;DHT22;9570;50.854;13.778;2023-06-24T04:40:51;17.30;99.90
18876;DHT22;9570;50.854;13.778;2023-06-24T04:43:16;17.40;99.90
18876;DHT22;9570;50.854;13.778;2023-06-24T04:45:42;17.30;99.90
18876;DHT22;9570;50.854;13.778;2023-06-24T04:48:07;17.10;99.90
18876;DHT22;9570;50.854;13.778;2023-06-24T04:50:33;17.10;99.90
18876;DHT22;9570;50.854;13.778;2023-06-24T04:52:58;17.30;99.90
18876;DHT22;9570;50.854;13.778;2023-06-24T04:55:24;17.30;99.90
18876;DHT22;9570;50.854;13.778;2023-06-24T04:57:49;17.50;99.90
18876;DHT22;9570;50.854;13.778;2023-06-24T05:00:15;17.60;99.90
18876;DHT22;9570;50.854;13.778;2023-06-24T05:02:40;17.50;99.90
18876;DHT22;9570;50.854;13.778;2023-06-24T05:05:06;17.60;99.90
18876;DHT22;9570;50.854;13.778;2023-06-24T05:07:32;17.70;99.90
18876;DHT22;9570;50.854;13.778;2023-06-24T05:09:57;17.80;99.90
18876;DHT22;9570;50.854;13.778;2023-06-24T05:12:23;17.80;99.90
18876;DHT22;9570;50.854;13.778;2023-06-24T05:14:51;17.90;99.90
18876;DHT22;9570;50.854;13.778;2023-06-24T05:17:18;17.90;99.90
18876;DHT22;9570;50.854;13.778;2023-06-24T05:19:44;18.00;99.90
18876;DHT22;9570;50.854;13.778;2023-06-24T05:22:09;17.90;99.90
18876;DHT22;9570;50.854;13.778;2023-06-24T05:24:35;17.90;99.90
18876;DHT22;9570;50.854;13.778;2023-06-24T05:27:04;17.80;99.90
18876;DHT22;9570;50.854;13.778;2023-06-24T05:29:31;17.70;99.90
18876;DHT22;9570;50.854;13.778;2023-06-24T05:31:57;17.70;99.90
18876;DHT22;9570;50.854;13.778;2023-06-24T05:34:22;17.80;99.90
18876;DHT22;9570;50.854;13.778;2023-06-24T05:36:47;18.00;99.90
18876;DHT22;9570;50.854;13.778;2023-06-24T05:39:13;18.00;99.90
18876;DHT22;9570;50.854;13.778;2023-06-24T05:41:39;18.20;99.90
18876;DHT22;9570;50.854;13.778;2023-06-24T05:44:07;18.20;99.90
18876;DHT22;9570;50.854;13.778;2023-06-24T05:46:33;18.30;99.90
18876;DHT22;9570;50.854;13.778;2023-06-24T05:48:58;18.20;99.90
18876;DHT22;9570;50.854;13.778;2023-06-24T05:51:24;18.10;99.90
18876;DHT22;9570;50.854;13.778;2023-06-24T05:53:50;18.00;99.90
18876;DHT22;9570;50.854;13.778;2023-06-24T05:56:15;17.90;99.90
18876;DHT22;9570;50.854;13.778;2023-06-24T05:58:40;17.90;99.90
18876;DHT22;9570;50.854;13.778;2023-06-24T06:01:07;17.90;99.90
18876;DHT22;9570;50.854;13.778;2023-06-24T06:03:32;17.90;99.90
18876;DHT22;9570;50.854;13.778;2023-06-24T06:05:58;17.90;99.90
18876;DHT22;9570;50.854;13.778;2023-06-24T06:08:23;18.00;99.90
18876;DHT22;9570;50.854;13.778;2023-06-24T06:10:49;18.00;99.90
18876;DHT22;9570;50.854;13.778;2023-06-24T06:13:14;18.20;99.90
18876;DHT22;9570;50.854;13.778;2023-06-24T06:15:40;18.30;99.90
18876;DHT22;9570;50.854;13.778;2023-06-24T06:18:05;18.30;99.90
18876;DHT22;9570;50.854;13.778;2023-06-24T06:20:31;18.20;99.90
18876;DHT22;9570;50.854;13.778;2023-06-24T06:22:56;18.20;99.90
18876;DHT22;9570;50.854;13.778;2023-06-24T06:25:23;18.20;99.90
18876;DHT22;9570;50.854;13.778;2023-06-24T06:27:48;18.20;99.90
18876;DHT22;9570;50.854;13.778;2023-06-24T06:30:14;17.90;99.90
18876;DHT22;9570;50.854;13.778;2023-06-24T06:32:40;17.60;99.90
18876;DHT22;9570;50.854;13.778;2023-06-24T06:35:06;17.50;99.90
18876;DHT22;9570;50.854;13.778;2023-06-24T06:37:31;17.70;99.90
18876;DHT22;9570;50.854;13.778;2023-06-24T06:39:57;17.70;99.90
18876;DHT22;9570;50.854;13.778;2023-06-24T06:42:22;17.50;99.90
18876;DHT22;9570;50.854;13.778;2023-06-24T06:44:48;17.30;99.90
18876;DHT22;9570;50.854;13.778;2023-06-24T06:47:13;17.20;99.90
18876;DHT22;9570;50.854;13.778;2023-06-24T06:49:39;17.20;99.90
18876;DHT22;9570;50.854;13.778;2023-06-24T06:52:05;17.20;99.90
18876;DHT22;9570;50.854;13.778;2023-06-24T06:54:31;17.20;99.90
18876;DHT22;9570;50.854;13.778;2023-06-24T06:57:03;17.00;99.90
18876;DHT22;9570;50.854;13.778;2023-06-24T06:59:30;17.20;99.90
18876;DHT22;9570;50.854;13.778;2023-06-24T07:01:55;17.20;99.90
18876;DHT22;9570;50.854;13.778;2023-06-24T07:04:21;17.30;99.90
18876;DHT22;9570;50.854;13.778;2023-06-24T07:06:47;17.40;99.90
18876;DHT22;9570;50.854;13.778;2023-06-24T07:09:12;17.30;99.90
18876;DHT22;9570;50.854;13.778;2023-06-24T07:11:38;17.40;99.90
18876;DHT22;9570;50.854;13.778;2023-06-24T07:14:03;17.50;99.90
18876;DHT22;9570;50.854;13.778;2023-06-24T07:16:28;17.60;99.90
18876;DHT22;9570;50.854;13.778;2023-06-24T07:18:54;17.60;99.90
18876;DHT22;9570;50.854;13.778;2023-06-24T07:21:19;17.70;99.90
18876;DHT22;9570;50.854;13.778;2023-06-24T07:23:45;17.40;99.90
18876;DHT22;9570;50.854;13.778;2023-06-24T07:26:11;17.50;99.90
18876;DHT22;9570;50.854;13.778;2023-06-24T07:28:36;17.70;99.90
18876;DHT22;9570;50.854;13.778;2023-06-24T07:31:02;17.80;99.90
18876;DHT22;9570;50.854;13.778;2023-06-24T07:33:27;17.80;99.90
18876;DHT22;9570;50.854;13.778;2023-06-24T07:35:55;17.90;99.90
18876;DHT22;9570;50.854;13.778;2023-06-24T07:38:21;18.00;99.90
18876;DHT22;9570;50.854;13.778;2023-06-24T07:40:46;17.80;99.90
18876;DHT22;9570;50.854;13.778;2023-06-24T07:43:11;17.60;99.90
18876;DHT22;9570;50.854;13.778;2023-06-24T07:45:37;17.70;99.90
18876;DHT22;9570;50.854;13.778;2023-06-24T07:48:02;18.00;99.90
18876;DHT22;9570;50.854;13.778;2023-06-24T07:50:30;18.20;99.90
18876;DHT22;9570;50.854;13.778;2023-06-24T07:52:56;18.40;99.90
18876;DHT22;9570;50.854;13.778;2023-06-24T07:55:22;18.40;99.90
18876;DHT22;9570;50.854;13.778;2023-06-24T07:57:48;18.40;99.90
18876;DHT22;9570;50.854;13.778;2023-06-24T08:00:14;18.30;99.90
18876;DHT22;9570;50.854;13.778;2023-06-24T08:02:41;18.20;99.90
18876;DHT22;9570;50.854;13.778;2023-06-24T08:05:07;18.40;99.90
18876;DHT22;9570;50.854;13.778;2023-06-24T08:07:34;18.50;99.90
18876;DHT22;9570;50.854;13.778;2023-06-24T08:10:00;18.70;99.90
18876;DHT22;9570;50.854;13.778;2023-06-24T08:12:25;18.90;99.90
18876;DHT22;9570;50.854;13.778;2023-06-24T08:14:50;18.80;99.90
18876;DHT22;9570;50.854;13.778;2023-06-24T08:17:16;18.80;99.90
18876;DHT22;9570;50.854;13.778;2023-06-24T08:19:41;18.80;99.90
18876;DHT22;9570;50.854;13.778;2023-06-24T08:22:07;18.90;99.90
18876;DHT22;9570;50.854;13.778;2023-06-24T08:24:32;18.90;99.90
18876;DHT22;9570;50.854;13.778;2023-06-24T08:26:58;18.70;99.90
18876;DHT22;9570;50.854;13.778;2023-06-24T08:29:23;18.70;99.90
18876;DHT22;9570;50.854;13.778;2023-06-24T08:31:49;18.60;99.90
18876;DHT22;9570;50.854;13.778;2023-06-24T08:34:14;18.90;99.90
18876;DHT22;9570;50.854;13.778;2023-06-24T08:36:40;19.50;99.90
18876;DHT22;9570;50.854;13.778;2023-06-24T08:39:05;19.70;99.90
18876;DHT22;9570;50.854;13.778;2023-06-24T08:41:31;19.60;99.90
18876;DHT22;9570;50.854;13.778;2023-06-24T08:43:56;19.90;99.90
18876;DHT22;9570;50.854;13.778;2023-06-24T08:46:24;20.20;99.90
18876;DHT22;9570;50.854;13.778;2023-06-24T08:48:58;20.40;99.90
18876;DHT22;9570;50.854;13.778;2023-06-24T08:51:27;20.80;99.90
18876;DHT22;9570;50.854;13.778;2023-06-24T08:53:55;21.40;99.90
18876;DHT22;9570;50.854;13.778;2023-06-24T08:56:21;21.70;99.90
18876;DHT22;9570;50.854;13.778;2023-06-24T08:58:46;21.90;99.90
18876;DHT22;9570;50.854;13.778;2023-06-24T09:01:12;22.00;99.90
18876;DHT22;9570;50.854;13.778;2023-06-24T09:03:38;21.90;99.90
18876;DHT22;9570;50.854;13.778;2023-06-24T09:06:03;21.90;99.90
18876;DHT22;9570;50.854;13.778;2023-06-24T09:08:29;22.00;99.90
18876;DHT22;9570;50.854;13.778;2023-06-24T09:10:55;21.80;99.90
18876;DHT22;9570;50.854;13.778;2023-06-24T09:13:35;21.90;99.90
18876;DHT22;9570;50.854;13.778;2023-06-24T09:16:11;21.90;99.90
18876;DHT22;9570;50.854;13.778;2023-06-24T09:18:38;21.80;99.90
18876;DHT22;9570;50.854;13.778;2023-06-24T09:21:03;22.00;99.90
18876;DHT22;9570;50.854;13.778;2023-06-24T09:23:29;22.50;99.90
18876;DHT22;9570;50.854;13.778;2023-06-24T09:25:57;22.70;99.90
18876;DHT22;9570;50.854;13.778;2023-06-24T09:28:28;22.70;99.90
18876;DHT22;9570;50.854;13.778;2023-06-24T09:31:09;22.90;99.90
18876;DHT22;9570;50.854;13.778;2023-06-24T09:33:35;23.00;99.90
18876;DHT22;9570;50.854;13.778;2023-06-24T09:36:02;23.20;99.90
18876;DHT22;9570;50.854;13.778;2023-06-24T09:38:35;22.90;99.90
18876;DHT22;9570;50.854;13.778;2023-06-24T09:41:05;22.70;99.90
18876;DHT22;9570;50.854;13.778;2023-06-24T09:43:38;22.50;99.90
18876;DHT22;9570;50.854;13.778;2023-06-24T09:46:06;22.30;99.90
18876;DHT22;9570;50.854;13.778;2023-06-24T09:48:35;22.40;99.90
18876;DHT22;9570;50.854;13.778;2023-06-24T09:51:03;22.50;99.90
18876;DHT22;9570;50.854;13.778;2023-06-24T09:53:31;22.40;99.90
18876;DHT22;9570;50.854;13.778;2023-06-24T09:55:59;22.70;99.90
18876;DHT22;9570;50.854;13.778;2023-06-24T09:58:25;22.40;99.90
18876;DHT22;9570;50.854;13.778;2023-06-24T10:00:52;22.30;99.90
18876;DHT22;9570;50.854;13.778;2023-06-24T10:03:18;22.00;99.90
18876;DHT22;9570;50.854;13.778;2023-06-24T10:05:43;21.40;99.90
18876;DHT22;9570;50.854;13.778;2023-06-24T10:08:10;21.40;99.90
18876;DHT22;9570;50.854;13.778;2023-06-24T10:10:36;21.60;99.90
18876;DHT22;9570;50.854;13.778;2023-06-24T10:13:01;21.90;99.90
18876;DHT22;9570;50.854;13.778;2023-06-24T10:15:27;22.30;99.90
18876;DHT22;9570;50.854;13.778;2023-06-24T10:17:52;22.80;99.90
18876;DHT22;9570;50.854;13.778;2023-06-24T10:20:25;23.10;99.90
18876;DHT22;9570;50.854;13.778;2023-06-24T10:22:51;23.20;99.90
18876;DHT22;9570;50.854;13.778;2023-06-24T10:25:17;23.60;99.90
18876;DHT22;9570;50.854;13.778;2023-06-24T10:27:43;23.90;99.90
18876;DHT22;9570;50.854;13.778;2023-06-24T10:30:17;23.30;99.90
18876;DHT22;9570;50.854;13.778;2023-06-24T10:32:44;23.00;99.90
18876;DHT22;9570;50.854;13.778;2023-06-24T10:35:27;22.50;99.90
18876;DHT22;9570;50.854;13.778;2023-06-24T10:38:00;22.70;99.90
18876;DHT22;9570;50.854;13.778;2023-06-24T10:40:38;22.90;99.90
18876;DHT22;9570;50.854;13.778;2023-06-24T10:45:50;23.00;99.90
18876;DHT22;9570;50.854;13.778;2023-06-24T10:48:17;22.70;99.90
18876;DHT22;9570;50.854;13.778;2023-06-24T10:50:45;22.40;99.90
18876;DHT22;9570;50.854;13.778;2023-06-24T10:53:10;22.30;99.90
18876;DHT22;9570;50.854;13.778;2023-06-24T10:55:37;22.30;99.90
18876;DHT22;9570;50.854;13.778;2023-06-24T10:58:10;22.20;99.90
18876;DHT22;9570;50.854;13.778;2023-06-24T11:00:38;22.00;99.90
18876;DHT22;9570;50.854;13.778;2023-06-24T11:03:17;22.10;99.90
18876;DHT22;9570;50.854;13.778;2023-06-24T11:05:46;22.00;99.90
18876;DHT22;9570;50.854;13.778;2023-06-24T11:08:11;21.90;99.90
18876;DHT22;9570;50.854;13.778;2023-06-24T11:10:44;21.70;99.90
18876;DHT22;9570;50.854;13.778;2023-06-24T11:13:10;21.50;99.90
18876;DHT22;9570;50.854;13.778;2023-06-24T11:15:36;21.40;99.90
18876;DHT22;9570;50.854;13.778;2023-06-24T11:18:04;21.50;99.90
18876;DHT22;9570;50.854;13.778;2023-06-24T11:20:30;21.60;99.90
18876;DHT22;9570;50.854;13.778;2023-06-24T11:22:55;21.50;99.90
18876;DHT22;9570;50.854;13.778;2023-06-24T11:25:21;21.40;99.90
18876;DHT22;9570;50.854;13.778;2023-06-24T11:27:49;21.40;99.90
18876;DHT22;9570;50.854;13.778;2023-06-24T11:30:16;21.30;99.90
18876;DHT22;9570;50.854;13.778;2023-06-24T11:32:43;21.30;99.90
18876;DHT22;9570;50.854;13.778;2023-06-24T11:35:10;21.40;99.90
18876;DHT22;9570;50.854;13.778;2023-06-24T11:37:36;21.50;99.90
18876;DHT22;9570;50.854;13.778;2023-06-24T11:40:06;21.40;99.90
18876;DHT22;9570;50.854;13.778;2023-06-24T11:42:39;21.40;99.90
18876;DHT22;9570;50.854;13.778;2023-06-24T11:45:07;21.60;99.90
18876;DHT22;9570;50.854;13.778;2023-06-24T11:47:34;21.80;99.90
18876;DHT22;9570;50.854;13.778;2023-06-24T11:50:00;22.00;99.90
18876;DHT22;9570;50.854;13.778;2023-06-24T11:52:44;21.80;99.90
18876;DHT22;9570;50.854;13.778;2023-06-24T11:55:24;21.60;99.90
18876;DHT22;9570;50.854;13.778;2023-06-24T11:58:01;21.60;99.90
18876;DHT22;9570;50.854;13.778;2023-06-24T12:00:31;21.50;99.90
18876;DHT22;9570;50.854;13.778;2023-06-24T12:03:00;21.30;99.90
18876;DHT22;9570;50.854;13.778;2023-06-24T12:05:30;21.50;99.90
18876;DHT22;9570;50.854;13.778;2023-06-24T12:08:06;21.70;99.90
18876;DHT22;9570;50.854;13.778;2023-06-24T12:10:33;21.60;99.90
18876;DHT22;9570;50.854;13.778;2023-06-24T12:12:59;21.60;99.90
18876;DHT22;9570;50.854;13.778;2023-06-24T12:15:25;21.70;99.90
18876;DHT22;9570;50.854;13.778;2023-06-24T12:17:51;21.60;99.90
18876;DHT22;9570;50.854;13.778;2023-06-24T12:20:16;21.70;99.90
18876;DHT22;9570;50.854;13.778;2023-06-24T12:22:44;21.70;99.90
18876;DHT22;9570;50.854;13.778;2023-06-24T12:25:09;21.90;99.90
18876;DHT22;9570;50.854;13.778;2023-06-24T12:27:35;21.90;99.90
18876;DHT22;9570;50.854;13.778;2023-06-24T12:30:01;22.00;99.90
18876;DHT22;9570;50.854;13.778;2023-06-24T12:32:27;21.70;99.90
18876;DHT22;9570;50.854;13.778;2023-06-24T12:34:52;21.70;99.90
18876;DHT22;9570;50.854;13.778;2023-06-24T12:37:18;21.80;99.90
18876;DHT22;9570;50.854;13.778;2023-06-24T12:39:44;21.80;99.90
18876;DHT22;9570;50.854;13.778;2023-06-24T12:42:10;21.90;99.90
18876;DHT22;9570;50.854;13.778;2023-06-24T12:44:36;21.90;99.90
18876;DHT22;9570;50.854;13.778;2023-06-24T12:47:01;22.00;99.90
18876;DHT22;9570;50.854;13.778;2023-06-24T12:49:28;22.00;99.90
18876;DHT22;9570;50.854;13.778;2023-06-24T12:51:53;21.90;99.90
18876;DHT22;9570;50.854;13.778;2023-06-24T12:54:19;21.90;99.90
18876;DHT22;9570;50.854;13.778;2023-06-24T12:56:44;21.80;99.90
18876;DHT22;9570;50.854;13.778;2023-06-24T12:59:09;21.70;99.90
18876;DHT22;9570;50.854;13.778;2023-06-24T13:01:35;21.70;99.90
18876;DHT22;9570;50.854;13.778;2023-06-24T13:04:00;21.90;99.90
18876;DHT22;9570;50.854;13.778;2023-06-24T13:06:26;22.00;99.90
18876;DHT22;9570;50.854;13.778;2023-06-24T13:08:51;22.10;99.90
18876;DHT22;9570;50.854;13.778;2023-06-24T13:11:17;22.00;99.90
18876;DHT22;9570;50.854;13.778;2023-06-24T13:13:42;22.10;99.90
18876;DHT22;9570;50.854;13.778;2023-06-24T13:16:08;22.10;99.90
18876;DHT22;9570;50.854;13.778;2023-06-24T13:18:33;22.00;99.90
18876;DHT22;9570;50.854;13.778;2023-06-24T13:20:59;22.00;99.90
18876;DHT22;9570;50.854;13.778;2023-06-24T13:23:24;22.00;99.90
18876;DHT22;9570;50.854;13.778;2023-06-24T13:25:50;22.00;99.90
18876;DHT22;9570;50.854;13.778;2023-06-24T13:28:15;22.10;99.90
18876;DHT22;9570;50.854;13.778;2023-06-24T13:30:41;22.10;99.90
18876;DHT22;9570;50.854;13.778;2023-06-24T13:33:06;22.20;99.90
18876;DHT22;9570;50.854;13.778;2023-06-24T13:35:32;22.10;99.90
18876;DHT22;9570;50.854;13.778;2023-06-24T13:37:57;22.00;99.90
18876;DHT22;9570;50.854;13.778;2023-06-24T13:40:23;22.10;99.90
18876;DHT22;9570;50.854;13.778;2023-06-24T13:42:50;22.20;99.90
18876;DHT22;9570;50.854;13.778;2023-06-24T13:45:15;22.30;99.90
18876;DHT22;9570;50.854;13.778;2023-06-24T13:47:41;22.30;99.90
18876;DHT22;9570;50.854;13.778;2023-06-24T13:50:06;22.30;99.90
18876;DHT22;9570;50.854;13.778;2023-06-24T13:52:32;22.20;99.90
18876;DHT22;9570;50.854;13.778;2023-06-24T13:54:58;22.20;99.90
18876;DHT22;9570;50.854;13.778;2023-06-24T13:57:23;22.10;99.90
18876;DHT22;9570;50.854;13.778;2023-06-24T13:59:49;22.20;99.90
18876;DHT22;9570;50.854;13.778;2023-06-24T14:02:14;22.20;99.90
18876;DHT22;9570;50.854;13.778;2023-06-24T14:04:40;22.10;99.90
18876;DHT22;9570;50.854;13.778;2023-06-24T14:07:06;22.20;99.90
18876;DHT22;9570;50.854;13.778;2023-06-24T14:09:32;22.30;99.90
18876;DHT22;9570;50.854;13.778;2023-06-24T14:11:58;22.20;99.90
18876;DHT22;9570;50.854;13.778;2023-06-24T14:14:24;22.20;99.90
18876;DHT22;9570;50.854;13.778;2023-06-24T14:16:49;22.10;99.90
18876;DHT22;9570;50.854;13.778;2023-06-24T14:19:15;22.10;99.90
18876;DHT22;9570;50.854;13.778;2023-06-24T14:21:40;22.10;99.90
18876;DHT22;9570;50.854;13.778;2023-06-24T14:24:06;22.10;99.90
18876;DHT22;9570;50.854;13.778;2023-06-24T14:26:33;22.00;99.90
18876;DHT22;9570;50.854;13.778;2023-06-24T14:28:59;22.00;99.90
18876;DHT22;9570;50.854;13.778;2023-06-24T14:31:24;22.00;99.90
18876;DHT22;9570;50.854;13.778;2023-06-24T14:33:49;22.00;99.90
18876;DHT22;9570;50.854;13.778;2023-06-24T14:36:15;22.00;99.90
18876;DHT22;9570;50.854;13.778;2023-06-24T14:38:40;22.00;99.90
18876;DHT22;9570;50.854;13.778;2023-06-24T14:41:08;22.00;99.90
18876;DHT22;9570;50.854;13.778;2023-06-24T14:43:33;22.00;99.90
18876;DHT22;9570;50.854;13.778;2023-06-24T14:45:59;22.00;99.90
18876;DHT22;9570;50.854;13.778;2023-06-24T14:48:24;22.10;99.90
18876;DHT22;9570;50.854;13.778;2023-06-24T14:50:50;22.10;99.90
18876;DHT22;9570;50.854;13.778;2023-06-24T14:53:16;22.00;99.90
18876;DHT22;9570;50.854;13.778;2023-06-24T14:55:41;22.00;99.90
18876;DHT22;9570;50.854;13.778;2023-06-24T14:58:07;22.00;99.90
18876;DHT22;9570;50.854;13.778;2023-06-24T15:00:32;21.90;99.90
18876;DHT22;9570;50.854;13.778;2023-06-24T15:02:57;21.80;99.90
18876;DHT22;9570;50.854;13.778;2023-06-24T15:05:23;21.90;99.90
18876;DHT22;9570;50.854;13.778;2023-06-24T15:07:48;22.00;99.90
18876;DHT22;9570;50.854;13.778;2023-06-24T15:10:14;22.00;99.90
18876;DHT22;9570;50.854;13.778;2023-06-24T15:12:39;22.10;99.90
18876;DHT22;9570;50.854;13.778;2023-06-24T15:15:06;22.20;99.90
18876;DHT22;9570;50.854;13.778;2023-06-24T15:17:31;22.20;99.90
18876;DHT22;9570;50.854;13.778;2023-06-24T15:19:59;22.20;99.90
18876;DHT22;9570;50.854;13.778;2023-06-24T15:22:25;22.20;99.90
18876;DHT22;9570;50.854;13.778;2023-06-24T15:24:51;22.20;99.90
18876;DHT22;9570;50.854;13.778;2023-06-24T15:27:16;22.10;99.90
18876;DHT22;9570;50.854;13.778;2023-06-24T15:29:42;22.10;99.90
18876;DHT22;9570;50.854;13.778;2023-06-24T15:32:07;22.00;99.90
18876;DHT22;9570;50.854;13.778;2023-06-24T15:34:33;22.00;99.90
18876;DHT22;9570;50.854;13.778;2023-06-24T15:36:58;21.90;99.90
18876;DHT22;9570;50.854;13.778;2023-06-24T15:39:23;21.90;99.90